Time;durP1;ratioP1;P1;durP2;ratioP2;P2;SDS_P1;SDS_P2;PMS_P1;PMS_P2;Temp;Humidity;BMP_temperature;BMP_pressure;BME280_temperature;BME280_humidity;BME280_pressure;Samples;Min_cycle;Max_cycle;Signal;HPM_P1;HPM_P2
2022/08/30 00:02:27;;;;;;;;;14.75;12.25;;;27.80;100980.84;;;;117581;1189;25397;-61
2022/08/30 00:05:00;;;;;;;;;18.00;12.00;;;27.75;100977.47;;;;117518;1189;25626;-62
2022/08/30 00:07:28;;;;;;;;;13.67;7.67;;;27.72;100971.77;;;;117503;1188;25376;-61
2022/08/30 00:09:56;;;;;;;;;19.75;12.25;;;27.70;100974.08;;;;117478;1188;25224;-61
2022/08/30 00:12:25;;;;;;;;;17.75;11.00;;;27.63;100976.64;;;;117475;1189;24853;-62
2022/08/30 00:14:55;;;;;;;;;19.00;12.00;;;27.58;100976.02;;;;117486;1189;25582;-61
2022/08/30 00:17:23;;;;;;;;;18.25;13.25;;;27.56;100977.18;;;;117522;1187;25772;-62
2022/08/30 00:19:52;;;;;;;;;18.00;15.25;;;27.53;100980.35;;;;117533;1188;24812;-61
2022/08/30 00:22:21;;;;;;;;;17.75;12.25;;;27.48;100983.00;;;;117440;1190;24876;-61
2022/08/30 00:24:49;;;;;;;;;20.25;15.75;;;27.40;100978.04;;;;117409;1189;24703;-61
2022/08/30 00:27:18;;;;;;;;;22.25;16.00;;;27.34;100979.15;;;;117481;1189;24987;-62
2022/08/30 00:29:46;;;;;;;;;17.50;15.00;;;27.32;100982.04;;;;117727;1187;25076;-61
2022/08/30 00:32:15;;;;;;;;;21.25;13.50;;;27.26;100980.61;;;;117485;1189;25371;-61
2022/08/30 00:34:43;;;;;;;;;17.25;15.25;;;27.19;100979.41;;;;117573;1189;25079;-60
2022/08/30 00:37:12;;;;;;;;;24.67;17.33;;;27.08;100979.66;;;;117495;1188;25382;-61
2022/08/30 00:39:41;;;;;;;;;23.00;17.00;;;27.07;100981.26;;;;117487;1189;25158;-62
2022/08/30 00:42:11;;;;;;;;;17.00;12.00;;;27.19;100985.80;;;;117516;1189;25146;-61
2022/08/30 00:44:41;;;;;;;;;21.25;13.00;;;27.23;100987.41;;;;117516;1188;25438;-61
2022/08/30 00:47:10;;;;;;;;;20.75;12.25;;;27.15;100990.48;;;;117521;1186;24994;-61
2022/08/30 00:49:42;;;;;;;;;19.50;13.00;;;27.11;100988.26;;;;117521;1189;25089;-62
2022/08/30 00:52:12;;;;;;;;;25.50;17.75;;;27.15;100989.94;;;;117443;1190;25385;-61
2022/08/30 00:54:44;;;;;;;;;30.50;20.75;;;27.19;100987.25;;;;117439;1190;25175;-60
2022/08/30 00:57:13;;;;;;;;;28.67;15.33;;;27.11;100982.16;;;;117418;1189;25772;-62
2022/08/30 00:59:47;;;;;;;;;25.75;16.75;;;27.15;100983.08;;;;117506;1188;25010;-65
2022/08/30 01:02:19;;;;;;;;;34.00;18.75;;;27.15;100979.55;;;;117417;1190;24839;-62
2022/08/30 01:04:50;;;;;;;;;17.75;14.75;;;27.18;100980.83;;;;117441;1189;25134;-64
2022/08/30 01:07:18;;;;;;;;;20.75;18.25;;;27.18;100980.64;;;;117440;1189;25192;-64
2022/08/30 01:09:47;;;;;;;;;29.33;16.00;;;27.13;100979.88;;;;117440;1190;25513;-64
2022/08/30 01:12:15;;;;;;;;;19.25;18.00;;;27.00;100978.75;;;;117445;1189;24779;-63
2022/08/30 01:14:45;;;;;;;;;24.00;16.67;;;26.90;100977.90;;;;117438;1189;24940;-61
2022/08/30 01:17:16;;;;;;;;;25.25;20.00;;;26.93;100978.27;;;;117449;1190;24866;-61
2022/08/30 01:19:53;;;;;;;;;20.25;14.75;;;26.93;100974.65;;;;117449;1188;25455;-61
2022/08/30 01:22:49;;;;;;;;;18.25;13.00;;;26.99;100973.48;;;;117448;1189;24867;-60
2022/08/30 01:25:27;;;;;;;;;17.50;10.50;;;26.74;100972.44;;;;117421;1188;25344;-62
2022/08/30 01:28:03;;;;;;;;;22.00;14.67;;;26.73;100974.50;;;;117464;1190;24846;-62
2022/08/30 01:30:32;;;;;;;;;28.33;17.00;;;26.83;100969.57;;;;117490;1189;25156;-60
2022/08/30 01:33:03;;;;;;;;;22.50;13.25;;;26.88;100969.64;;;;117479;1189;25530;-62
2022/08/30 01:35:38;;;;;;;;;20.75;14.00;;;26.65;100970.41;;;;117444;1189;25426;-61
2022/08/30 01:38:07;;;;;;;;;17.33;14.00;;;26.71;100968.35;;;;117444;1189;25738;-60
2022/08/30 01:40:35;;;;;;;;;27.75;16.50;;;26.54;100970.98;;;;117398;1190;25279;-62
2022/08/30 01:43:04;;;;;;;;;13.25;9.50;;;26.60;100968.41;;;;117443;1188;25026;-61
2022/08/30 01:45:33;;;;;;;;;23.00;14.33;;;26.59;100968.85;;;;117371;1190;25317;-61
2022/08/30 01:48:01;;;;;;;;;24.00;16.75;;;26.54;100968.70;;;;117436;1190;26246;-62
2022/08/30 01:50:33;;;;;;;;;18.00;14.50;;;26.57;100973.55;;;;117441;1190;25022;-61
2022/08/30 01:53:04;;;;;;;;;25.00;16.00;;;26.49;100973.50;;;;117439;1189;25184;-59
2022/08/30 01:55:33;;;;;;;;;20.50;15.75;;;26.51;100975.29;;;;117413;1190;25754;-60
2022/08/30 01:58:02;;;;;;;;;16.25;13.50;;;26.49;100976.75;;;;117457;1189;25033;-61
2022/08/30 02:00:31;;;;;;;;;14.25;9.50;;;26.15;100977.45;;;;117421;1190;24858;-62
2022/08/30 02:03:00;;;;;;;;;20.00;14.25;;;26.01;100979.69;;;;117476;1189;25541;-61
2022/08/30 02:05:28;;;;;;;;;16.00;13.00;;;25.72;100977.31;;;;117462;1190;25135;-61
2022/08/30 02:07:57;;;;;;;;;16.67;11.33;;;25.81;100980.00;;;;117449;1188;24979;-61
2022/08/30 02:10:25;;;;;;;;;18.75;13.00;;;26.02;100976.64;;;;117423;1189;25408;-62
2022/08/30 02:12:53;;;;;;;;;20.75;14.00;;;26.05;100980.38;;;;117481;1189;24949;-62
2022/08/30 02:15:22;;;;;;;;;23.50;16.50;;;25.87;100989.59;;;;117526;1188;25244;-62
2022/08/30 02:17:50;;;;;;;;;20.25;15.50;;;25.96;100992.21;;;;117505;1188;24743;-61
2022/08/30 02:20:19;;;;;;;;;21.25;16.75;;;25.81;100985.02;;;;117518;1188;25024;-61
2022/08/30 02:22:47;;;;;;;;;21.67;15.00;;;25.75;100990.81;;;;117509;1188;24738;-63
2022/08/30 02:25:16;;;;;;;;;21.25;14.00;;;25.99;100996.55;;;;117475;1189;25732;-62
2022/08/30 02:27:48;;;;;;;;;22.67;21.00;;;26.04;100994.90;;;;117514;1187;25792;-62
2022/08/30 02:30:16;;;;;;;;;23.00;17.75;;;26.09;100995.67;;;;117422;1190;25449;-61
2022/08/30 02:32:44;;;;;;;;;17.75;13.50;;;26.04;100997.49;;;;117380;1189;24901;-61
2022/08/30 02:35:13;;;;;;;;;29.00;19.25;;;25.97;100994.25;;;;117434;1188;25052;-62
2022/08/30 02:37:41;;;;;;;;;18.25;15.50;;;25.93;100995.36;;;;117432;1189;25877;-63
2022/08/30 02:40:10;;;;;;;;;20.00;15.33;;;25.94;100999.11;;;;117494;1190;25154;-63
2022/08/30 02:42:40;;;;;;;;;14.50;14.50;;;25.98;100999.25;;;;117494;1189;24773;-63
2022/08/30 02:45:09;;;;;;;;;19.33;15.33;;;25.88;100995.30;;;;117436;1190;25021;-62
2022/08/30 02:47:38;;;;;;;;;21.50;16.25;;;25.63;100995.65;;;;117494;1190;25466;-63
2022/08/30 02:50:14;;;;;;;;;17.50;16.00;;;25.73;100997.88;;;;117334;1189;25712;-61
2022/08/30 02:52:43;;;;;;;;;19.67;18.00;;;25.72;100997.59;;;;117340;1190;25165;-60
2022/08/30 02:55:15;;;;;;;;;20.50;18.50;;;25.69;101006.00;;;;117421;1191;25562;-61
2022/08/30 02:57:44;;;;;;;;;23.50;20.00;;;25.60;101009.05;;;;117387;1190;25017;-62
2022/08/30 03:00:16;;;;;;;;;27.25;19.75;;;25.60;101011.23;;;;117484;1189;25242;-63
2022/08/30 03:02:45;;;;;;;;;22.75;20.00;;;25.71;101009.45;;;;117425;1190;25129;-63
2022/08/30 03:05:15;;;;;;;;;28.00;22.25;;;25.70;101010.76;;;;117440;1189;25447;-61
2022/08/30 03:07:45;;;;;;;;;22.00;18.25;;;25.54;101012.45;;;;117432;1189;24866;-62
2022/08/30 03:10:15;;;;;;;;;21.33;16.33;;;25.50;101016.91;;;;117427;1190;25721;-60
2022/08/30 03:12:43;;;;;;;;;25.00;16.33;;;25.51;101021.48;;;;117407;1190;25596;-61
2022/08/30 03:15:13;;;;;;;;;22.67;17.67;;;25.55;101026.81;;;;117426;1189;24913;-61
2022/08/30 03:17:41;;;;;;;;;25.75;16.00;;;25.53;101027.71;;;;117421;1190;25313;-61
2022/08/30 03:20:10;;;;;;;;;23.50;19.00;;;25.33;101026.43;;;;117429;1191;25346;-62
2022/08/30 03:22:39;;;;;;;;;24.33;19.67;;;25.32;101029.30;;;;117418;1190;24868;-62
2022/08/30 03:25:08;;;;;;;;;19.50;16.00;;;25.25;101032.77;;;;117421;1190;25043;-63
2022/08/30 03:27:36;;;;;;;;;18.75;17.25;;;25.07;101031.55;;;;117485;1189;25174;-63
2022/08/30 03:30:06;;;;;;;;;21.33;15.00;;;25.16;101037.32;;;;117402;1190;25615;-62
2022/08/30 03:32:35;;;;;;;;;22.67;19.33;;;25.05;101038.64;;;;117399;1190;24900;-60
2022/08/30 03:35:04;;;;;;;;;25.00;20.00;;;24.93;101046.41;;;;117450;1190;25632;-61
2022/08/30 03:37:33;;;;;;;;;23.00;19.00;;;25.01;101048.64;;;;117445;1190;25694;-61
2022/08/30 03:40:04;;;;;;;;;23.00;19.00;;;25.01;101056.14;;;;117406;1190;25248;-61
2022/08/30 03:42:34;;;;;;;;;16.50;14.50;;;25.04;101060.09;;;;117433;1189;25479;-61
2022/08/30 03:45:04;;;;;;;;;23.00;19.67;;;24.99;101060.71;;;;117458;1189;25697;-61
2022/08/30 03:47:33;;;;;;;;;23.50;18.00;;;25.16;101066.08;;;;117446;1189;25114;-60
2022/08/30 03:50:03;;;;;;;;;23.33;21.33;;;24.91;101063.69;;;;117442;1189;25384;-61
2022/08/30 03:52:32;;;;;;;;;20.33;19.33;;;25.04;101062.16;;;;117448;1190;25551;-61
2022/08/30 03:55:01;;;;;;;;;23.33;22.00;;;24.94;101063.09;;;;117523;1189;24898;-62
2022/08/30 03:57:29;;;;;;;;;27.75;22.25;;;25.07;101064.38;;;;117508;1190;24859;-63
2022/08/30 03:59:58;;;;;;;;;27.33;24.33;;;25.14;101069.35;;;;117614;1188;25051;-63
2022/08/30 04:02:27;;;;;;;;;24.67;22.67;;;25.32;101071.16;;;;117378;1189;25066;-63
2022/08/30 04:04:55;;;;;;;;;24.67;24.33;;;25.43;101076.71;;;;117524;1189;25509;-61
2022/08/30 04:07:24;;;;;;;;;24.00;19.50;;;25.23;101080.27;;;;117453;1188;25310;-60
2022/08/30 04:09:53;;;;;;;;;24.33;23.00;;;25.26;101080.66;;;;117532;1187;25545;-60
2022/08/30 04:12:21;;;;;;;;;24.25;19.50;;;25.42;101083.80;;;;117535;1188;25359;-61
2022/08/30 04:14:50;;;;;;;;;24.25;22.75;;;25.52;101087.52;;;;117509;1189;25565;-61
2022/08/30 04:17:18;;;;;;;;;28.50;24.75;;;25.63;101091.64;;;;117495;1188;25037;-60
2022/08/30 04:19:47;;;;;;;;;26.25;22.75;;;25.74;101091.23;;;;117460;1190;25575;-61
2022/08/30 04:22:16;;;;;;;;;27.50;24.50;;;25.88;101095.45;;;;117363;1190;25452;-62
2022/08/30 04:24:44;;;;;;;;;24.67;23.33;;;25.88;101099.75;;;;117472;1190;25703;-62
2022/08/30 04:27:13;;;;;;;;;25.00;22.33;;;26.04;101102.69;;;;117431;1189;25043;-63
2022/08/30 04:29:42;;;;;;;;;24.50;20.50;;;26.05;101104.52;;;;117422;1190;25356;-63
2022/08/30 04:32:11;;;;;;;;;22.25;20.50;;;26.13;101105.19;;;;117544;1188;25157;-62
2022/08/30 04:34:39;;;;;;;;;30.67;29.33;;;26.29;101108.08;;;;117452;1190;25521;-63
2022/08/30 04:37:07;;;;;;;;;25.00;20.67;;;26.16;101108.70;;;;117512;1189;25531;-63
2022/08/30 04:39:37;;;;;;;;;19.75;16.25;;;26.07;101110.46;;;;117421;1190;25281;-64
2022/08/30 04:42:08;;;;;;;;;26.00;22.67;;;26.25;101113.76;;;;117472;1189;25252;-65
2022/08/30 04:44:37;;;;;;;;;26.67;24.67;;;26.37;101113.88;;;;117504;1188;24888;-66
2022/08/30 04:47:07;;;;;;;;;27.00;23.00;;;26.49;101111.90;;;;117543;1188;25116;-66
2022/08/30 04:49:35;;;;;;;;;24.25;21.50;;;26.58;101113.60;;;;117558;1189;25156;-66
2022/08/30 04:52:07;;;;;;;;;31.25;26.00;;;26.47;101117.25;;;;117860;1186;25406;-64
2022/08/30 04:54:36;;;;;;;;;26.67;22.67;;;26.72;101118.17;;;;117491;1188;24907;-64
2022/08/30 04:57:05;;;;;;;;;31.50;24.75;;;26.75;101118.23;;;;117455;1187;24798;-63
2022/08/30 04:59:34;;;;;;;;;32.67;26.67;;;26.51;101118.70;;;;117855;1188;25732;-63
2022/08/30 05:02:03;;;;;;;;;23.50;21.50;;;26.56;101118.86;;;;117493;1188;25372;-63
2022/08/30 05:04:31;;;;;;;;;28.25;23.00;;;26.56;101119.19;;;;117446;1189;24813;-63
2022/08/30 05:07:00;;;;;;;;;27.00;23.00;;;26.69;101117.02;;;;117456;1190;25918;-63
2022/08/30 05:09:28;;;;;;;;;25.75;22.50;;;26.49;101114.84;;;;117414;1189;24709;-65
2022/08/30 05:11:56;;;;;;;;;27.75;23.75;;;26.70;101116.59;;;;117436;1190;25531;-64
2022/08/30 05:14:25;;;;;;;;;28.25;23.50;;;26.79;101116.02;;;;117456;1189;26487;-63
2022/08/30 05:16:54;;;;;;;;;26.75;23.25;;;26.71;101122.31;;;;117446;1189;25200;-62
2022/08/30 05:19:22;;;;;;;;;29.00;23.50;;;26.71;101122.23;;;;117789;1188;25732;-63
2022/08/30 05:21:50;;;;;;;;;26.25;23.00;;;26.95;101121.66;;;;117548;1188;25069;-64
2022/08/30 05:24:19;;;;;;;;;22.75;19.50;;;27.16;101128.02;;;;117496;1188;25645;-64
2022/08/30 05:26:47;;;;;;;;;21.33;19.00;;;26.97;101132.48;;;;117495;1186;25131;-63
2022/08/30 05:29:16;;;;;;;;;28.50;25.75;;;27.13;101138.54;;;;117507;1188;25284;-64
2022/08/30 05:31:44;;;;;;;;;28.33;23.67;;;27.14;101139.04;;;;117389;1190;25227;-64
2022/08/30 05:34:13;;;;;;;;;26.00;21.00;;;27.01;101141.85;;;;117421;1188;25180;-65
2022/08/30 05:36:42;;;;;;;;;25.25;23.50;;;27.29;101147.48;;;;117463;1188;25002;-65
2022/08/30 05:39:11;;;;;;;;;25.00;20.33;;;27.41;101149.35;;;;117499;1189;24774;-65
2022/08/30 05:41:40;;;;;;;;;25.00;22.00;;;27.59;101146.46;;;;117450;1190;25447;-71
2022/08/30 05:44:09;;;;;;;;;29.33;24.00;;;27.49;101151.10;;;;117861;1187;24753;-66
2022/08/30 05:46:38;;;;;;;;;24.75;20.00;;;27.50;101152.66;;;;117497;1189;24983;-64
2022/08/30 05:49:07;;;;;;;;;28.00;19.00;;;28.01;101150.32;;;;117488;1188;24869;-64
2022/08/30 05:51:37;;;;;;;;;28.67;24.67;;;27.61;101151.73;;;;117514;1188;25326;-62
2022/08/30 05:54:12;;;;;;;;;24.50;22.25;;;27.34;101153.73;;;;117547;1188;24748;-64
2022/08/30 05:56:44;;;;;;;;;26.00;21.00;;;27.91;101149.34;;;;117512;1187;25028;-63
2022/08/30 05:59:13;;;;;;;;;26.33;22.33;;;27.89;101153.27;;;;117782;1188;25340;-65
2022/08/30 06:01:45;;;;;;;;;22.25;20.75;;;28.06;101149.83;;;;117464;1189;25215;-65
2022/08/30 06:04:14;;;;;;;;;24.00;20.50;;;28.11;101149.70;;;;117554;1188;25027;-66
2022/08/30 06:06:43;;;;;;;;;21.33;18.67;;;27.97;101154.45;;;;117486;1189;24766;-65
2022/08/30 06:09:13;;;;;;;;;27.75;20.75;;;28.09;101153.52;;;;117528;1188;25286;-65
2022/08/30 06:11:43;;;;;;;;;22.75;19.50;;;28.25;101154.71;;;;117535;1187;25112;-65
2022/08/30 06:14:13;;;;;;;;;28.25;24.50;;;28.60;101156.20;;;;117505;1189;25599;-65
2022/08/30 06:16:44;;;;;;;;;24.25;17.50;;;28.95;101160.15;;;;117549;1187;25613;-65
2022/08/30 06:19:14;;;;;;;;;23.33;21.00;;;29.00;101156.54;;;;117506;1186;25342;-66
2022/08/30 06:21:47;;;;;;;;;36.75;24.25;;;29.54;101158.02;;;;117524;1188;25412;-64
2022/08/30 06:24:16;;;;;;;;;21.25;19.25;;;29.07;101159.02;;;;117382;1189;25227;-64
2022/08/30 06:26:46;;;;;;;;;20.25;18.00;;;29.63;101155.20;;;;117501;1188;25502;-64
2022/08/30 06:29:17;;;;;;;;;23.50;21.75;;;29.67;101155.52;;;;117874;1186;25428;-66
2022/08/30 06:31:46;;;;;;;;;25.25;21.25;;;29.59;101151.80;;;;117467;1188;25184;-62
2022/08/30 06:34:16;;;;;;;;;22.00;19.50;;;29.28;101156.63;;;;117482;1186;25361;-63
2022/08/30 06:36:44;;;;;;;;;26.00;22.00;;;29.03;101155.42;;;;117534;1189;25448;-63
2022/08/30 06:39:13;;;;;;;;;22.25;20.25;;;29.15;101158.04;;;;117511;1189;25528;-65
2022/08/30 06:41:42;;;;;;;;;23.00;21.33;;;29.17;101158.69;;;;117508;1189;24678;-64
2022/08/30 06:44:11;;;;;;;;;27.25;22.75;;;29.22;101157.17;;;;117557;1188;25008;-66
2022/08/30 06:46:39;;;;;;;;;24.00;21.75;;;29.47;101155.20;;;;117538;1188;25090;-66
2022/08/30 06:49:08;;;;;;;;;22.50;18.50;;;29.19;101153.20;;;;117460;1188;24729;-64
2022/08/30 06:51:39;;;;;;;;;28.25;22.50;;;29.23;101151.39;;;;117509;1188;25149;-63
2022/08/30 06:54:09;;;;;;;;;21.50;19.00;;;29.25;101153.95;;;;117744;1186;25331;-62
2022/08/30 06:56:40;;;;;;;;;23.00;22.33;;;29.77;101151.61;;;;117516;1189;25327;-64
2022/08/30 06:59:25;;;;;;;;;29.67;24.00;;;29.77;101152.67;;;;117540;1187;25613;-63
2022/08/30 07:01:55;;;;;;;;;21.75;20.25;;;29.97;101151.13;;;;117880;1187;25264;-65
2022/08/30 07:04:24;;;;;;;;;19.33;19.33;;;31.15;101155.48;;;;117531;1188;25715;-65
2022/08/30 07:06:53;;;;;;;;;29.00;24.00;;;31.08;101158.77;;;;117466;1188;24940;-64
2022/08/30 07:09:22;;;;;;;;;10.25;7.25;;;31.25;101157.59;;;;117949;1186;25093;-64
2022/08/30 07:11:51;;;;;;;;;24.50;23.25;;;31.33;101153.56;;;;117504;1187;25385;-64
2022/08/30 07:14:20;;;;;;;;;20.50;18.75;;;31.40;101153.10;;;;117511;1189;24952;-64
2022/08/30 07:16:49;;;;;;;;;20.67;18.00;;;32.29;101149.09;;;;117424;1188;25293;-63
2022/08/30 07:19:19;;;;;;;;;30.50;27.75;;;32.41;101148.45;;;;117606;1187;25661;-66
2022/08/30 07:21:49;;;;;;;;;21.33;19.67;;;33.45;101152.86;;;;117392;1190;25043;-66
2022/08/30 07:24:19;;;;;;;;;31.50;21.75;;;34.46;101151.15;;;;117501;1188;24905;-63
2022/08/30 07:26:50;;;;;;;;;22.75;19.00;;;36.05;101157.80;;;;117505;1189;24817;-66
2022/08/30 07:29:20;;;;;;;;;19.75;18.50;;;37.28;101154.42;;;;117913;1188;24773;-66
2022/08/30 07:31:48;;;;;;;;;20.67;19.00;;;37.88;101159.95;;;;117518;1187;25422;-66
2022/08/30 07:34:17;;;;;;;;;24.75;19.00;;;38.78;101161.40;;;;117484;1189;25088;-63
2022/08/30 07:36:49;;;;;;;;;19.00;17.00;;;39.57;101157.89;;;;117421;1189;25110;-67
2022/08/30 07:39:18;;;;;;;;;23.00;17.33;;;40.32;101161.44;;;;117375;1188;24823;-69
2022/08/30 07:41:47;;;;;;;;;18.00;18.00;;;40.86;101155.35;;;;117537;1188;25343;-71
2022/08/30 07:44:16;;;;;;;;;22.75;21.75;;;40.88;101158.31;;;;117566;1187;25708;-67
2022/08/30 07:46:45;;;;;;;;;16.75;16.50;;;41.54;101157.14;;;;117683;1189;26323;-66
2022/08/30 07:49:14;;;;;;;;;20.75;17.75;;;41.94;101154.11;;;;117647;1188;25202;-67
2022/08/30 07:51:43;;;;;;;;;22.00;19.75;;;43.12;101153.97;;;;117562;1187;24938;-66
2022/08/30 07:54:12;;;;;;;;;20.25;18.25;;;43.42;101153.48;;;;117538;1189;25394;-68
2022/08/30 07:56:40;;;;;;;;;22.75;20.00;;;42.87;101152.22;;;;118110;1190;25642;-68
2022/08/30 07:59:08;;;;;;;;;21.00;16.25;;;45.73;101153.11;;;;117412;1188;25493;-66
2022/08/30 08:01:37;;;;;;;;;18.25;18.25;;;46.43;101152.25;;;;117367;1188;25626;-67
2022/08/30 08:04:05;;;;;;;;;20.00;19.00;;;47.29;101150.98;;;;117506;1188;25612;-65
2022/08/30 08:06:37;;;;;;;;;20.50;20.00;;;47.75;101151.46;;;;117439;1189;25318;-68
2022/08/30 08:09:07;;;;;;;;;23.00;18.25;;;48.33;101151.22;;;;117535;1189;25862;-69
2022/08/30 08:11:35;;;;;;;;;16.75;15.00;;;48.75;101151.02;;;;117718;1186;25116;-69
2022/08/30 08:14:04;;;;;;;;;19.67;18.00;;;48.57;101151.00;;;;117424;1187;25542;-66
2022/08/30 08:16:34;;;;;;;;;19.00;16.25;;;48.40;101159.36;;;;117587;1188;25644;-65
2022/08/30 08:19:03;;;;;;;;;19.00;16.25;;;50.39;101153.51;;;;117460;1189;25045;-71
2022/08/30 08:21:32;;;;;;;;;17.00;16.00;;;51.03;101154.16;;;;117840;1186;25055;-65
2022/08/30 08:24:01;;;;;;;;;17.00;17.00;;;50.83;101153.30;;;;117423;1189;24729;-65
2022/08/30 08:26:34;;;;;;;;;17.00;15.33;;;50.94;101150.47;;;;117506;1188;25105;-67
2022/08/30 08:29:04;;;;;;;;;20.50;18.00;;;50.89;101149.54;;;;117558;1189;25044;-65
2022/08/30 08:31:32;;;;;;;;;21.75;19.75;;;49.80;101146.95;;;;117577;1188;25608;-66
2022/08/30 08:34:04;;;;;;;;;16.50;16.50;;;49.99;101146.64;;;;117597;1188;25522;-66
2022/08/30 08:36:35;;;;;;;;;20.25;19.25;;;51.24;101145.05;;;;117490;1189;26535;-63
2022/08/30 08:39:04;;;;;;;;;14.75;14.75;;;51.22;101146.23;;;;117500;1187;24996;-73
2022/08/30 08:41:57;;;;;;;;;21.25;17.25;;;50.54;101151.05;;;;117476;1189;25549;-66
2022/08/30 08:45:01;;;;;;;;;19.00;18.25;;;51.67;101143.91;;;;117466;1188;25693;-65
2022/08/30 08:47:35;;;;;;;;;17.00;16.00;;;51.84;101141.07;;;;117404;1188;25725;-66
2022/08/30 08:50:09;;;;;;;;;18.00;17.00;;;52.63;101143.98;;;;117499;1187;25633;-65
2022/08/30 08:55:51;;;;;;;;;14.75;14.00;;;53.93;101139.33;;;;117365;1189;25358;-65
2022/08/30 08:58:26;;;;;;;;;20.50;20.50;;;55.30;101141.86;;;;117351;1189;25194;-68
2022/08/30 09:00:56;;;;;;;;;21.00;19.00;;;56.11;101138.02;;;;117345;1190;25222;-66
2022/08/30 09:03:27;;;;;;;;;19.75;17.75;;;54.58;101143.16;;;;117427;1190;25006;-65
2022/08/30 09:05:57;;;;;;;;;17.25;16.75;;;54.83;101144.11;;;;117417;1190;25274;-66
2022/08/30 09:08:26;;;;;;;;;16.75;16.00;;;56.22;101135.52;;;;117432;1188;25359;-66
2022/08/30 09:11:03;;;;;;;;;20.75;18.75;;;56.82;101135.84;;;;117405;1189;25151;-71
2022/08/30 09:13:32;;;;;;;;;46.00;35.67;;;56.11;101132.80;;;;117469;1188;25705;-73
2022/08/30 09:16:01;;;;;;;;;17.33;15.00;;;57.74;101126.43;;;;117437;1188;25577;-64
2022/08/30 09:18:46;;;;;;;;;19.00;18.50;;;56.84;101126.88;;;;117440;1187;25579;-65
2022/08/30 09:21:25;;;;;;;;;14.75;14.50;;;55.79;101126.13;;;;117370;1190;25263;-64
2022/08/30 09:24:00;;;;;;;;;18.75;18.50;;;54.18;101124.71;;;;117400;1190;25466;-63
2022/08/30 09:26:37;;;;;;;;;18.33;15.33;;;55.52;101124.39;;;;117398;1190;24878;-63
2022/08/30 09:29:16;;;;;;;;;19.50;18.00;;;57.75;101120.56;;;;117402;1189;25247;-64
2022/08/30 09:31:47;;;;;;;;;20.50;18.75;;;57.85;101116.21;;;;117405;1189;25146;-63
2022/08/30 09:34:21;;;;;;;;;16.50;16.00;;;56.47;101114.52;;;;117441;1189;25086;-64
2022/08/30 09:36:52;;;;;;;;;20.75;19.00;;;55.92;101113.48;;;;117403;1191;26056;-64
2022/08/30 09:39:26;;;;;;;;;19.67;18.33;;;57.56;101110.05;;;;117453;1190;25282;-64
2022/08/30 09:42:14;;;;;;;;;15.00;14.75;;;54.46;101112.16;;;;117421;1188;25515;-65
2022/08/30 09:44:42;;;;;;;;;18.25;15.75;;;55.05;101106.95;;;;117404;1190;24931;-64
2022/08/30 09:47:43;;;;;;;;;21.33;20.67;;;53.49;101103.58;;;;117388;1190;24994;-67
2022/08/30 09:50:14;;;;;;;;;18.75;17.00;;;53.68;101098.74;;;;117223;1190;25072;-68
2022/08/30 09:53:01;;;;;;;;;20.00;19.00;;;54.79;101097.73;;;;117421;1189;25582;-68
2022/08/30 09:55:41;;;;;;;;;23.25;18.25;;;56.18;101092.07;;;;117443;1187;25395;-64
2022/08/30 09:58:18;;;;;;;;;15.75;15.75;;;53.19;101089.11;;;;117501;1188;24817;-62
2022/08/30 10:01:10;;;;;;;;;18.00;15.75;;;52.85;101086.00;;;;117807;1188;25155;-63
2022/08/30 10:04:15;;;;;;;;;21.25;19.25;;;53.84;101083.73;;;;117552;1189;24868;-64
2022/08/30 10:07:12;;;;;;;;;15.75;15.50;;;54.43;101082.14;;;;117619;1188;25359;-66
2022/08/30 10:09:49;;;;;;;;;21.33;20.67;;;53.64;101078.73;;;;117333;1188;25112;-62
2022/08/30 10:12:27;;;;;;;;;15.67;14.67;;;53.44;101079.57;;;;117624;1188;24923;-65
2022/08/30 10:14:58;;;;;;;;;16.33;15.33;;;52.63;101079.59;;;;117523;1186;25716;-66
2022/08/30 10:17:39;;;;;;;;;19.25;17.25;;;51.81;101075.59;;;;117413;1186;24885;-63
2022/08/30 10:20:08;;;;;;;;;18.00;16.25;;;53.23;101069.98;;;;117675;1188;25703;-63
2022/08/30 10:22:47;;;;;;;;;16.50;15.50;;;51.24;101073.83;;;;117517;1188;24812;-63
2022/08/30 10:25:34;;;;;;;;;22.50;18.25;;;48.17;101070.48;;;;117446;1188;24778;-63
2022/08/30 10:28:15;;;;;;;;;16.50;16.50;;;49.90;101070.84;;;;117643;1189;25066;-62
2022/08/30 10:30:56;;;;;;;;;20.67;18.67;;;51.35;101065.73;;;;117473;1187;24757;-64
2022/08/30 10:33:38;;;;;;;;;15.00;13.00;;;47.41;101062.19;;;;117482;1189;25058;-63
2022/08/30 10:36:12;;;;;;;;;16.67;14.00;;;48.74;101057.95;;;;117532;1188;25490;-63
2022/08/30 10:38:51;;;;;;;;;14.67;10.67;;;49.97;101054.25;;;;117865;1187;24838;-64
2022/08/30 10:41:32;;;;;;;;;13.50;12.00;;;48.76;101048.06;;;;117537;1189;25640;-66
2022/08/30 10:44:28;;;;;;;;;16.25;15.75;;;47.34;101049.11;;;;117884;1187;25727;-64
2022/08/30 10:47:17;;;;;;;;;15.00;12.75;;;46.78;101046.02;;;;117571;1188;25303;-64
2022/08/30 10:49:56;;;;;;;;;19.33;16.67;;;48.05;101039.41;;;;117665;1188;25302;-65
2022/08/30 10:52:43;;;;;;;;;21.50;17.00;;;48.22;101042.39;;;;117854;1187;24878;-64
2022/08/30 10:55:23;;;;;;;;;16.25;13.25;;;46.89;101041.14;;;;117829;1186;25537;-64
2022/08/30 10:57:52;;;;;;;;;18.00;15.00;;;47.51;101036.45;;;;117796;1187;24833;-68
2022/08/30 11:00:29;;;;;;;;;20.33;17.33;;;47.50;101035.07;;;;117545;1188;25631;-65
2022/08/30 11:03:09;;;;;;;;;14.50;14.00;;;45.63;101033.73;;;;117504;1188;25090;-66
2022/08/30 11:05:40;;;;;;;;;22.00;20.00;;;46.12;101032.38;;;;117527;1189;25371;-65
2022/08/30 11:08:15;;;;;;;;;17.50;16.25;;;44.98;101032.48;;;;117504;1189;25451;-66
2022/08/30 11:10:58;;;;;;;;;18.00;17.25;;;45.17;101025.77;;;;117548;1187;25389;-68
2022/08/30 11:13:29;;;;;;;;;19.25;16.00;;;44.08;101025.02;;;;117640;1188;25060;-65
2022/08/30 11:16:08;;;;;;;;;18.25;18.25;;;44.26;101018.15;;;;117555;1186;25142;-63
2022/08/30 11:18:52;;;;;;;;;20.00;17.67;;;42.71;101014.20;;;;117582;1189;24919;-64
2022/08/30 11:21:39;;;;;;;;;18.75;16.00;;;43.06;101006.85;;;;117499;1188;24845;-65
2022/08/30 11:24:20;;;;;;;;;17.00;16.25;;;41.79;101004.81;;;;117509;1189;25577;-64
2022/08/30 11:26:56;;;;;;;;;18.50;17.50;;;41.79;101006.13;;;;117798;1186;25120;-63
2022/08/30 11:29:44;;;;;;;;;18.67;17.67;;;43.26;101003.09;;;;117773;1187;25119;-64
2022/08/30 11:32:16;;;;;;;;;15.50;15.00;;;42.86;100998.30;;;;117434;1188;25617;-65
2022/08/30 11:34:47;;;;;;;;;17.50;16.25;;;41.85;100995.20;;;;117815;1186;25244;-64
2022/08/30 11:37:41;;;;;;;;;30.50;27.00;;;42.55;100991.03;;;;117495;1189;25401;-65
2022/08/30 11:40:43;;;;;;;;;17.33;15.33;;;41.66;100995.95;;;;117458;1188;25363;-63
2022/08/30 11:43:33;;;;;;;;;21.00;17.00;;;39.96;100993.80;;;;117567;1189;25337;-64
2022/08/30 11:46:16;;;;;;;;;19.00;15.33;;;39.88;100989.08;;;;117538;1189;25106;-65
2022/08/30 11:48:50;;;;;;;;;21.00;20.00;;;39.78;100982.79;;;;117369;1189;24923;-64
2022/08/30 11:51:28;;;;;;;;;18.25;18.00;;;39.60;100976.23;;;;117482;1188;24947;-65
2022/08/30 11:54:07;;;;;;;;;16.75;16.00;;;39.74;100973.01;;;;117917;1188;24948;-64
2022/08/30 11:56:42;;;;;;;;;15.00;14.75;;;38.86;100971.97;;;;117832;1188;25142;-65
2022/08/30 11:59:22;;;;;;;;;16.50;14.00;;;38.87;100973.36;;;;117517;1188;25041;-63
2022/08/30 12:01:51;;;;;;;;;21.75;18.75;;;38.69;100971.13;;;;117700;1188;25096;-63
2022/08/30 12:04:19;;;;;;;;;23.33;22.00;;;38.49;100966.20;;;;117524;1189;25163;-63
2022/08/30 12:07:17;;;;;;;;;19.00;17.50;;;38.72;100963.31;;;;117538;1187;24912;-62
2022/08/30 12:09:45;;;;;;;;;24.00;20.50;;;38.14;100957.45;;;;117485;1188;24977;-62